createdAt,value
2019-02-11T00:00:38.140Z,5.15
2019-02-11T00:03:09.026Z,3.35
2019-02-11T00:05:38.290Z,3.80
2019-02-11T00:08:07.570Z,3.10
2019-02-11T00:10:36.843Z,3.20
2019-02-11T00:13:10.592Z,4.20
2019-02-11T00:15:37.344Z,3.27
2019-02-11T00:18:06.629Z,2.70
2019-02-11T00:20:35.893Z,2.83
2019-02-11T00:23:05.421Z,3.33
2019-02-11T00:25:35.037Z,2.80
2019-02-11T00:28:04.638Z,3.60
2019-02-11T00:30:34.302Z,4.92
2019-02-11T00:33:03.774Z,5.75
2019-02-11T00:35:33.053Z,5.67
2019-02-11T00:38:02.554Z,5.30
2019-02-11T00:40:31.829Z,8.30
2019-02-11T00:43:01.107Z,5.50
2019-02-11T00:45:30.383Z,5.30
2019-02-11T00:47:59.973Z,5.53
2019-02-11T00:50:29.235Z,6.00
2019-02-11T00:52:58.771Z,4.12
2019-02-11T00:55:28.387Z,4.12
2019-02-11T00:57:57.996Z,4.55
2019-02-11T01:00:27.279Z,5.60
2019-02-11T01:02:56.549Z,5.42
2019-02-11T01:05:25.819Z,5.17
2019-02-11T01:07:55.098Z,5.37
2019-02-11T01:10:24.364Z,10.43
2019-02-11T01:12:53.644Z,8.15
2019-02-11T01:15:23.199Z,6.62
2019-02-11T01:17:52.815Z,7.25
2019-02-11T01:20:22.079Z,8.98
2019-02-11T01:22:51.605Z,7.40
2019-02-11T01:25:20.887Z,7.08
2019-02-11T01:27:50.162Z,5.80
2019-02-11T01:30:19.428Z,7.05
2019-02-11T01:32:48.702Z,7.20
2019-02-11T01:35:19.047Z,7.22
2019-02-11T01:37:48.314Z,6.17
2019-02-11T01:40:17.847Z,4.60
2019-02-11T01:42:47.136Z,6.25
2019-02-11T01:45:16.396Z,7.35
2019-02-11T01:47:45.670Z,7.00
2019-02-11T01:50:14.942Z,5.42
2019-02-11T01:52:44.229Z,8.55
2019-02-11T01:55:13.493Z,7.92
2019-02-11T01:57:42.765Z,7.90
2019-02-11T02:00:13.815Z,8.78
2019-02-11T02:02:43.107Z,10.25
2019-02-11T02:05:12.377Z,8.60
2019-02-11T02:07:41.671Z,8.05
2019-02-11T02:10:13.839Z,11.88
2019-02-11T02:12:43.126Z,9.85
2019-02-11T02:15:14.513Z,7.87
2019-02-11T02:17:43.785Z,6.45
2019-02-11T02:20:16.007Z,9.03
2019-02-11T02:22:45.289Z,11.73
2019-02-11T02:25:14.558Z,7.85
2019-02-11T02:27:44.073Z,7.65
2019-02-11T02:30:14.194Z,6.47
2019-02-11T02:32:43.529Z,8.85
2019-02-11T02:35:12.801Z,11.95
2019-02-11T02:37:42.073Z,9.43
2019-02-11T02:40:11.525Z,10.25
2019-02-11T02:42:41.122Z,11.12
2019-02-11T02:45:10.653Z,12.78
2019-02-11T02:47:40.234Z,12.20
2019-02-11T02:50:09.983Z,15.68
2019-02-11T02:52:42.232Z,13.00
2019-02-11T02:55:11.510Z,15.90
2019-02-11T02:57:40.794Z,14.70
2019-02-11T03:00:11.883Z,17.17
2019-02-11T03:02:41.153Z,16.48
2019-02-11T03:05:10.489Z,19.40
2019-02-11T03:07:39.784Z,16.85
2019-02-11T03:10:11.166Z,19.20
2019-02-11T03:12:40.722Z,19.95
2019-02-11T03:15:11.129Z,18.20
2019-02-11T03:17:40.403Z,21.65
2019-02-11T03:20:10.258Z,26.75
2019-02-11T03:22:39.548Z,21.62
2019-02-11T03:25:09.950Z,21.55
2019-02-11T03:27:39.239Z,20.55
2019-02-11T03:30:09.965Z,24.37
2019-02-11T03:32:39.292Z,17.23
2019-02-11T03:35:08.609Z,20.27
2019-02-11T03:37:37.882Z,19.37
2019-02-11T03:40:09.668Z,18.35
2019-02-11T03:42:38.951Z,16.82
2019-02-11T03:45:11.348Z,16.93
2019-02-11T03:47:40.635Z,18.75
2019-02-11T03:50:11.344Z,17.30
2019-02-11T03:52:40.612Z,13.75
2019-02-11T03:55:09.986Z,12.47
2019-02-11T03:57:39.261Z,10.38
2019-02-11T04:00:14.489Z,12.68
2019-02-11T04:02:44.032Z,16.90
2019-02-11T04:05:13.355Z,15.25
2019-02-11T04:07:42.940Z,14.23
2019-02-11T04:10:12.549Z,19.02
2019-02-11T04:12:42.166Z,19.17
2019-02-11T04:15:12.999Z,22.45
2019-02-11T04:17:42.602Z,15.18
2019-02-11T04:20:12.030Z,21.77
2019-02-11T04:22:41.610Z,20.48
2019-02-11T04:25:10.899Z,18.15
2019-02-11T04:27:40.544Z,26.02
2019-02-11T04:30:10.093Z,19.40
2019-02-11T04:32:39.373Z,35.17
2019-02-11T04:35:08.725Z,27.32
2019-02-11T04:37:37.993Z,29.15
2019-02-11T04:40:10.415Z,27.95
2019-02-11T04:42:40.035Z,31.30
2019-02-11T04:45:10.454Z,25.37
2019-02-11T04:47:39.724Z,30.62
2019-02-11T04:50:10.383Z,33.53
2019-02-11T04:52:39.982Z,35.58
2019-02-11T04:55:10.048Z,37.63
2019-02-11T04:57:39.620Z,31.95
2019-02-11T05:00:14.232Z,27.13
2019-02-11T05:02:43.512Z,31.10
2019-02-11T05:05:13.175Z,46.98
2019-02-11T05:07:42.450Z,36.35
2019-02-11T05:10:17.669Z,32.93
2019-02-11T05:12:46.944Z,37.83
2019-02-11T05:15:16.234Z,29.77
2019-02-11T05:17:45.792Z,29.92
2019-02-11T05:20:15.082Z,24.55
2019-02-11T05:22:44.703Z,35.43
2019-02-11T05:25:13.985Z,35.15
2019-02-11T05:27:43.262Z,32.63
2019-02-11T05:30:12.558Z,29.95
2019-02-11T05:32:42.538Z,20.20
2019-02-11T05:35:11.907Z,39.98
2019-02-11T05:37:44.063Z,21.77
2019-02-11T05:40:13.134Z,26.57
2019-02-11T05:42:42.391Z,27.22
2019-02-11T05:45:11.910Z,23.87
2019-02-11T05:47:41.497Z,27.00
2019-02-11T05:50:12.120Z,18.20
2019-02-11T05:52:41.389Z,26.00
2019-02-11T05:55:10.867Z,28.83
2019-02-11T05:57:40.441Z,26.00
2019-02-11T06:00:12.650Z,24.87
2019-02-11T06:02:42.214Z,22.82
2019-02-11T06:05:11.822Z,25.82
2019-02-11T06:07:41.093Z,31.68
2019-02-11T06:10:11.022Z,26.12
2019-02-11T06:12:40.302Z,32.58
2019-02-11T06:15:09.658Z,35.25
2019-02-11T06:17:38.947Z,29.05
2019-02-11T06:20:10.080Z,22.30
2019-02-11T06:22:39.609Z,33.78
2019-02-11T06:25:09.218Z,19.07
2019-02-11T06:27:38.496Z,26.48
2019-02-11T06:30:11.122Z,23.40
2019-02-11T06:32:40.394Z,23.15
2019-02-11T06:35:10.140Z,23.22
2019-02-11T06:37:39.421Z,30.48
2019-02-11T06:40:10.438Z,21.85
2019-02-11T06:42:39.714Z,27.48
2019-02-11T06:45:13.369Z,25.40
2019-02-11T06:47:43.161Z,32.23
2019-02-11T06:50:14.703Z,20.68
2019-02-11T06:52:44.955Z,24.60
2019-02-11T06:55:14.233Z,25.10
2019-02-11T06:57:43.508Z,27.85
2019-02-11T07:00:15.108Z,27.22
2019-02-11T07:02:44.384Z,24.10
2019-02-11T07:05:13.842Z,27.17
2019-02-11T07:07:43.398Z,35.92
2019-02-11T07:10:12.699Z,19.07
2019-02-11T07:12:42.039Z,21.62
2019-02-11T07:15:21.249Z,32.67
2019-02-11T07:17:44.411Z,24.57
2019-02-11T07:20:13.681Z,21.93
2019-02-11T07:22:42.952Z,28.00
2019-02-11T07:25:12.482Z,26.35
2019-02-11T07:27:43.122Z,23.47
2019-02-11T07:30:13.964Z,14.83
2019-02-11T07:32:44.213Z,20.25
2019-02-11T07:35:13.795Z,24.18
2019-02-11T07:37:43.393Z,25.68
2019-02-11T07:40:13.747Z,32.30
2019-02-11T07:42:44.666Z,23.87
2019-02-11T07:45:18.746Z,20.68
2019-02-11T07:47:48.277Z,25.57
2019-02-11T07:50:17.564Z,25.05
2019-02-11T07:52:46.851Z,31.25
2019-02-11T07:55:16.131Z,25.25
2019-02-11T07:57:45.423Z,26.20
2019-02-11T08:00:15.086Z,21.65
2019-02-11T08:02:44.368Z,25.10
2019-02-11T08:05:13.912Z,29.27
2019-02-11T08:07:43.180Z,25.20
2019-02-11T08:10:12.457Z,22.22
2019-02-11T08:12:41.742Z,29.00
2019-02-11T08:15:11.508Z,30.70
2019-02-11T08:17:41.118Z,27.80
2019-02-11T08:20:10.779Z,27.67
2019-02-11T08:22:40.071Z,23.22
2019-02-11T08:25:09.417Z,32.85
2019-02-11T08:27:39.034Z,27.02
2019-02-11T08:30:10.460Z,29.75
2019-02-11T08:32:39.753Z,36.98
2019-02-11T08:35:09.267Z,33.58
2019-02-11T08:37:38.801Z,39.90
2019-02-11T08:40:09.859Z,30.92
2019-02-11T08:42:39.132Z,34.43
2019-02-11T08:45:10.162Z,36.65
2019-02-11T08:47:39.799Z,36.25
2019-02-11T08:50:09.708Z,30.60
2019-02-11T08:52:39.069Z,26.75
2019-02-11T08:55:08.790Z,25.97
2019-02-11T08:57:38.074Z,28.12
2019-02-11T09:00:10.113Z,32.30
2019-02-11T09:02:40.361Z,26.33
2019-02-11T09:05:09.634Z,37.40
2019-02-11T09:07:38.915Z,30.95
2019-02-11T09:10:10.830Z,35.80
2019-02-11T09:12:41.076Z,30.65
2019-02-11T09:15:12.358Z,36.58
2019-02-11T09:17:41.944Z,23.73
2019-02-11T09:20:11.893Z,34.50
2019-02-11T09:22:41.182Z,24.27
2019-02-11T09:25:11.591Z,27.30
2019-02-11T09:27:40.874Z,28.77
2019-02-11T09:30:17.368Z,29.63
2019-02-11T09:32:46.657Z,25.70
2019-02-11T09:35:16.166Z,22.80
2019-02-11T09:37:45.779Z,29.12
2019-02-11T09:40:16.925Z,27.25
2019-02-11T09:42:46.210Z,26.30
2019-02-11T09:45:21.495Z,27.05
2019-02-11T09:47:51.174Z,28.45
2019-02-11T09:50:26.604Z,27.55
2019-02-11T09:52:55.896Z,24.90
2019-02-11T09:55:30.503Z,24.65
2019-02-11T09:57:59.799Z,23.12
2019-02-11T10:00:29.071Z,28.27
2019-02-11T10:02:58.660Z,30.08
2019-02-11T10:05:28.262Z,27.58
2019-02-11T10:07:57.564Z,28.47
2019-02-11T10:10:26.840Z,25.15
2019-02-11T10:12:56.373Z,33.45
2019-02-11T10:15:25.642Z,26.68
2019-02-11T10:17:55.038Z,25.97
2019-02-11T10:20:24.683Z,25.97
2019-02-11T10:22:54.284Z,30.40
2019-02-11T10:25:26.379Z,21.30
2019-02-11T10:27:58.410Z,22.05
2019-02-11T10:30:27.681Z,24.80
2019-02-11T10:32:56.964Z,30.80
2019-02-11T10:35:26.534Z,26.50
2019-02-11T10:37:55.890Z,20.77
2019-02-11T10:40:25.169Z,25.52
2019-02-11T10:42:54.470Z,23.57
2019-02-11T10:45:23.905Z,18.02
2019-02-11T10:47:53.185Z,19.17
2019-02-11T10:50:22.466Z,20.08
2019-02-11T10:52:51.759Z,22.37
2019-02-11T10:55:21.649Z,21.25
2019-02-11T10:57:50.943Z,19.35
2019-02-11T11:00:24.345Z,18.73
2019-02-11T11:02:53.949Z,21.00
2019-02-11T11:05:23.230Z,16.57
2019-02-11T11:07:52.523Z,21.82
2019-02-11T11:10:30.554Z,16.55
2019-02-11T11:12:59.829Z,14.03
2019-02-11T11:15:29.468Z,19.73
2019-02-11T11:17:59.082Z,14.40
2019-02-11T11:20:28.658Z,16.65
2019-02-11T11:22:58.293Z,15.65
2019-02-11T11:25:27.908Z,22.70
2019-02-11T11:27:57.180Z,18.12
2019-02-11T11:30:26.820Z,11.45
2019-02-11T11:32:56.101Z,18.32
2019-02-11T11:35:25.375Z,19.05
2019-02-11T11:37:55.013Z,13.35
2019-02-11T11:40:24.468Z,12.45
2019-02-11T11:42:54.032Z,16.85
2019-02-11T11:45:23.306Z,15.25
2019-02-11T11:47:52.837Z,17.17
2019-02-11T11:50:22.126Z,14.90
2019-02-11T11:52:51.411Z,15.55
2019-02-11T11:55:22.407Z,22.82
2019-02-11T11:57:51.685Z,22.85
2019-02-11T12:00:28.775Z,16.15
2019-02-11T12:03:02.712Z,16.80
2019-02-11T12:05:29.024Z,18.25
2019-02-11T12:07:58.307Z,21.62
2019-02-11T12:10:28.682Z,14.00
2019-02-11T12:12:57.958Z,20.45
2019-02-11T12:15:27.608Z,15.05
2019-02-11T12:17:56.898Z,22.05
2019-02-11T12:20:26.154Z,18.85
2019-02-11T12:22:55.442Z,16.73
2019-02-11T12:25:24.808Z,20.85
2019-02-11T12:27:54.057Z,16.50
2019-02-11T12:30:27.735Z,21.95
2019-02-11T12:32:57.018Z,22.55
2019-02-11T12:35:26.563Z,20.92
2019-02-11T12:37:56.912Z,15.85
2019-02-11T12:40:26.193Z,12.90
2019-02-11T12:42:55.660Z,21.00
2019-02-11T12:45:25.360Z,14.75
2019-02-11T12:47:54.666Z,18.32
2019-02-11T12:50:23.948Z,14.83
2019-02-11T12:52:53.513Z,13.75
2019-02-11T12:55:22.789Z,18.50
2019-02-11T12:57:52.336Z,20.25
2019-02-11T13:00:23.139Z,14.07
2019-02-11T13:02:52.586Z,13.10
2019-02-11T13:05:32.184Z,16.37
2019-02-11T13:07:52.908Z,16.82
2019-02-11T13:10:22.234Z,9.98
2019-02-11T13:12:51.554Z,14.23
2019-02-11T13:15:53.151Z,12.85
2019-02-11T13:17:52.248Z,13.32
2019-02-11T13:20:21.618Z,10.08
2019-02-11T13:22:50.941Z,7.05
2019-02-11T13:25:20.228Z,11.20
2019-02-11T13:27:49.500Z,15.78
2019-02-11T13:30:20.510Z,13.22
2019-02-11T13:32:50.018Z,7.97
2019-02-11T13:35:19.601Z,9.13
2019-02-11T13:37:48.882Z,8.08
2019-02-11T13:40:18.219Z,11.45
2019-02-11T13:42:47.833Z,7.90
2019-02-11T13:45:21.518Z,12.53
2019-02-11T13:47:56.186Z,6.15
2019-02-11T13:50:26.640Z,8.75
2019-02-11T13:52:56.732Z,9.93
2019-02-11T13:55:30.154Z,12.53
2019-02-11T13:57:57.867Z,12.47
2019-02-11T14:00:36.703Z,16.67
2019-02-11T14:03:07.162Z,12.15
2019-02-11T14:05:36.431Z,12.30
2019-02-11T14:08:06.479Z,15.98
2019-02-11T14:10:36.292Z,15.70
2019-02-11T14:13:06.174Z,13.90
2019-02-11T14:15:35.620Z,10.03
2019-02-11T14:18:14.014Z,11.28
2019-02-11T14:20:41.223Z,10.88
2019-02-11T14:23:10.566Z,8.08
2019-02-11T14:25:44.977Z,9.68
2019-02-11T14:28:10.881Z,5.78
2019-02-11T14:30:40.304Z,12.03
2019-02-11T14:33:10.400Z,8.05
2019-02-11T14:35:39.755Z,12.88
2019-02-11T14:38:09.129Z,12.85
2019-02-11T14:40:38.898Z,7.08
2019-02-11T14:43:08.347Z,7.47
2019-02-11T14:45:37.685Z,7.22
2019-02-11T14:48:07.125Z,11.80
2019-02-11T14:50:36.587Z,12.13
2019-02-11T14:53:06.323Z,11.43
2019-02-11T14:55:35.701Z,10.35
2019-02-11T14:58:05.034Z,12.40
2019-02-11T15:00:34.305Z,9.48
2019-02-11T15:03:03.574Z,11.38
2019-02-11T15:05:32.863Z,16.77
2019-02-11T15:08:02.165Z,15.03
2019-02-11T15:10:31.434Z,13.70
2019-02-11T15:13:00.705Z,12.80
2019-02-11T15:15:30.043Z,19.40
2019-02-11T15:17:59.314Z,20.37
2019-02-11T15:20:28.599Z,14.85
2019-02-11T15:22:57.860Z,11.10
2019-02-11T15:25:27.191Z,14.43
2019-02-11T15:27:57.372Z,18.40
2019-02-11T15:30:26.660Z,24.95
2019-02-11T15:32:55.930Z,10.80
2019-02-11T15:35:25.235Z,20.08
2019-02-11T15:37:54.865Z,30.43
2019-02-11T15:40:24.136Z,11.03
2019-02-11T15:42:53.428Z,15.65
2019-02-11T15:45:22.697Z,13.95
2019-02-11T15:47:52.281Z,13.03
2019-02-11T15:50:21.555Z,12.30
2019-02-11T15:52:50.829Z,8.13
2019-02-11T15:55:23.162Z,6.25
2019-02-11T15:57:52.752Z,19.37
2019-02-11T16:00:23.307Z,7.42
2019-02-11T16:02:52.891Z,15.20
2019-02-11T16:05:22.168Z,12.45
2019-02-11T16:07:51.702Z,11.33
2019-02-11T16:10:28.373Z,19.85
2019-02-11T16:12:57.980Z,10.38
2019-02-11T16:15:27.388Z,10.93
2019-02-11T16:17:56.991Z,7.10
2019-02-11T16:20:26.266Z,15.15
2019-02-11T16:22:55.546Z,10.23
2019-02-11T16:25:24.835Z,12.63
2019-02-11T16:27:54.405Z,12.28
2019-02-11T16:30:23.668Z,8.65
2019-02-11T16:32:53.212Z,12.82
2019-02-11T16:35:22.867Z,16.02
2019-02-11T16:37:52.153Z,12.98
2019-02-11T16:40:27.230Z,18.02
2019-02-11T16:42:56.515Z,18.45
2019-02-11T16:45:25.785Z,10.68
2019-02-11T16:47:55.075Z,15.72
2019-02-11T16:50:24.358Z,10.15
2019-02-11T16:52:53.657Z,10.68
2019-02-11T16:55:23.257Z,21.60
2019-02-11T16:57:52.880Z,17.52
2019-02-11T17:00:22.151Z,17.90
2019-02-11T17:02:51.686Z,14.98
2019-02-11T17:05:21.311Z,14.43
2019-02-11T17:07:50.890Z,16.17
2019-02-11T17:10:20.162Z,19.20
2019-02-11T17:12:49.508Z,14.13
2019-02-11T17:15:20.164Z,12.43
2019-02-11T17:17:49.734Z,21.00
2019-02-11T17:20:19.178Z,14.60
2019-02-11T17:22:48.677Z,10.03
2019-02-11T17:25:18.259Z,15.25
2019-02-11T17:27:47.558Z,10.72
2019-02-11T17:30:26.027Z,18.92
2019-02-11T17:32:55.310Z,11.45
2019-02-11T17:35:24.591Z,19.15
2019-02-11T17:37:53.875Z,12.60
2019-02-11T17:40:23.483Z,21.73
2019-02-11T17:42:52.768Z,13.53
2019-02-11T17:45:30.369Z,14.95
2019-02-11T17:47:59.991Z,13.60
2019-02-11T17:50:29.270Z,10.75
2019-02-11T17:53:01.629Z,13.08
2019-02-11T17:55:30.894Z,10.15
2019-02-11T17:58:00.174Z,12.93
2019-02-11T18:00:42.839Z,14.87
2019-02-11T18:03:12.131Z,10.08
2019-02-11T18:05:41.403Z,12.18
2019-02-11T18:08:10.672Z,13.30
2019-02-11T18:10:39.950Z,10.82
2019-02-11T18:13:09.234Z,10.40
2019-02-11T18:15:38.777Z,15.85
2019-02-11T18:18:08.383Z,11.97
2019-02-11T18:20:37.995Z,20.02
2019-02-11T18:23:07.299Z,14.78
2019-02-11T18:25:36.582Z,10.80
2019-02-11T18:28:06.207Z,26.10
2019-02-11T18:30:35.537Z,20.15
2019-02-11T18:33:04.904Z,9.35
2019-02-11T18:35:34.520Z,12.18
2019-02-11T18:38:03.797Z,12.80
2019-02-11T18:40:33.332Z,11.75
2019-02-11T18:43:02.601Z,17.90
2019-02-11T18:45:33.268Z,11.83
2019-02-11T18:48:02.864Z,15.98
2019-02-11T18:50:32.140Z,15.53
2019-02-11T18:53:01.668Z,16.55
2019-02-11T18:55:31.627Z,13.18
2019-02-11T18:58:00.902Z,12.75
2019-02-11T19:00:30.495Z,15.70
2019-02-11T19:03:00.099Z,7.20
2019-02-11T19:05:29.719Z,13.93
2019-02-11T19:07:58.989Z,12.30
2019-02-11T19:10:28.254Z,17.20
2019-02-11T19:12:57.814Z,14.07
2019-02-11T19:15:27.082Z,17.05
2019-02-11T19:17:56.371Z,15.78
2019-02-11T19:20:25.918Z,10.75
2019-02-11T19:22:55.251Z,11.05
2019-02-11T19:25:24.520Z,12.70
2019-02-11T19:27:53.811Z,13.65
2019-02-11T19:30:27.024Z,7.92
2019-02-11T19:32:56.628Z,16.00
2019-02-11T19:35:25.894Z,15.13
2019-02-11T19:37:56.161Z,12.05
2019-02-11T19:40:25.422Z,19.80
2019-02-11T19:42:54.774Z,15.48
2019-02-11T19:45:24.767Z,15.75
2019-02-11T19:47:54.048Z,12.93
2019-02-11T19:50:23.634Z,11.05
2019-02-11T19:52:52.901Z,15.38
2019-02-11T19:55:22.473Z,11.78
2019-02-11T19:57:51.991Z,11.78
2019-02-11T20:00:22.448Z,9.65
2019-02-11T20:02:52.030Z,13.93
2019-02-11T20:05:22.383Z,15.78
2019-02-11T20:07:51.654Z,14.55
2019-02-11T20:10:23.313Z,17.92
2019-02-11T20:12:53.052Z,18.25
2019-02-11T20:15:32.337Z,14.68
2019-02-11T20:18:01.609Z,12.43
2019-02-11T20:20:30.885Z,11.28
2019-02-11T20:23:00.217Z,13.50
2019-02-11T20:25:29.519Z,13.38
2019-02-11T20:27:58.789Z,14.95
2019-02-11T20:30:29.615Z,22.02
2019-02-11T20:32:58.886Z,21.02
2019-02-11T20:35:28.186Z,18.17
2019-02-11T20:37:58.935Z,17.62
2019-02-11T20:40:30.013Z,17.60
2019-02-11T20:42:59.587Z,14.53
2019-02-11T20:45:29.598Z,17.57
2019-02-11T20:47:59.144Z,17.45
2019-02-11T20:50:28.436Z,23.52
2019-02-11T20:52:58.924Z,20.88
2019-02-11T20:55:28.220Z,16.77
2019-02-11T20:57:59.431Z,17.15
2019-02-11T21:00:28.995Z,14.53
2019-02-11T21:02:58.265Z,23.60
2019-02-11T21:05:27.543Z,19.75
2019-02-11T21:07:57.089Z,16.30
2019-02-11T21:10:26.997Z,15.43
2019-02-11T21:12:56.274Z,17.82
2019-02-11T21:15:25.816Z,24.10
2019-02-11T21:17:55.090Z,12.68
2019-02-11T21:20:33.069Z,13.62
2019-02-11T21:23:02.419Z,20.02
2019-02-11T21:25:32.034Z,17.50
2019-02-11T21:28:01.384Z,17.25
2019-02-11T21:30:30.936Z,18.55
2019-02-11T21:33:00.209Z,16.07
2019-02-11T21:35:29.739Z,17.35
2019-02-11T21:37:59.018Z,14.05
2019-02-11T21:40:28.289Z,17.60
2019-02-11T21:42:57.844Z,19.20
2019-02-11T21:45:27.137Z,19.77
2019-02-11T21:47:56.649Z,16.42
2019-02-11T21:50:27.008Z,18.25
2019-02-11T21:52:56.788Z,20.05
2019-02-11T21:55:26.453Z,14.65
2019-02-11T21:57:55.760Z,20.95
2019-02-11T22:00:25.039Z,21.48
2019-02-11T22:02:54.310Z,16.57
2019-02-11T22:05:23.590Z,22.60
2019-02-11T22:07:52.870Z,20.97
2019-02-11T22:10:23.319Z,21.62
2019-02-11T22:12:53.660Z,17.75
2019-02-11T22:15:22.981Z,18.55
2019-02-11T22:17:52.262Z,18.92
2019-02-11T22:20:22.291Z,17.10
2019-02-11T22:22:51.632Z,14.50
2019-02-11T22:25:20.909Z,24.18
2019-02-11T22:27:50.182Z,24.18
2019-02-11T22:30:24.932Z,21.30
2019-02-11T22:32:54.511Z,15.48
2019-02-11T22:35:23.869Z,15.95
2019-02-11T22:37:53.188Z,24.07
2019-02-11T22:40:22.449Z,24.10
2019-02-11T22:42:51.717Z,20.17
2019-02-11T22:45:23.991Z,26.10
2019-02-11T22:47:53.607Z,22.75
2019-02-11T22:50:22.879Z,14.73
2019-02-11T22:52:52.196Z,18.77
2019-02-11T22:55:21.495Z,24.32
2019-02-11T22:57:51.124Z,17.62
2019-02-11T23:00:28.345Z,16.97
2019-02-11T23:02:57.880Z,22.10
2019-02-11T23:05:27.164Z,21.12
2019-02-11T23:07:56.446Z,23.55
2019-02-11T23:10:26.015Z,17.02
2019-02-11T23:12:55.290Z,22.35
2019-02-11T23:15:24.815Z,15.10
2019-02-11T23:17:55.164Z,22.35
2019-02-11T23:20:24.442Z,23.92
2019-02-11T23:22:53.722Z,19.23
2019-02-11T23:25:23.341Z,15.93
2019-02-11T23:27:52.959Z,21.20
2019-02-11T23:30:22.239Z,20.60
2019-02-11T23:32:51.523Z,21.37
2019-02-11T23:35:20.796Z,17.00
2019-02-11T23:37:50.061Z,12.30
2019-02-11T23:40:19.349Z,20.30
2019-02-11T23:42:48.866Z,14.05
2019-02-11T23:45:18.141Z,22.77
2019-02-11T23:47:47.665Z,29.60
2019-02-11T23:50:16.951Z,22.05
2019-02-11T23:52:46.217Z,19.62
2019-02-11T23:55:15.495Z,15.48
2019-02-11T23:57:44.761Z,20.57
